sensor_id;sensor_type;location;lat;lon;timestamp;P1;durP1;ratioP1;P2;durP2;ratioP2
21804;SDS011;11064;47.102;15.452;2023-03-14T05:01:50;5.80;;;2.80;;
21804;SDS011;11064;47.102;15.452;2023-03-14T05:04:16;3.85;;;1.92;;
21804;SDS011;11064;47.102;15.452;2023-03-14T05:06:41;4.00;;;2.38;;
21804;SDS011;11064;47.102;15.452;2023-03-14T05:09:07;5.68;;;2.22;;
21804;SDS011;11064;47.102;15.452;2023-03-14T05:11:33;3.45;;;2.08;;
21804;SDS011;11064;47.102;15.452;2023-03-14T05:13:59;5.35;;;2.42;;
21804;SDS011;11064;47.102;15.452;2023-03-14T05:16:25;3.95;;;2.30;;
21804;SDS011;11064;47.102;15.452;2023-03-14T05:18:50;3.55;;;2.20;;
21804;SDS011;11064;47.102;15.452;2023-03-14T05:21:16;4.22;;;2.08;;
21804;SDS011;11064;47.102;15.452;2023-03-14T05:23:42;3.30;;;2.17;;
21804;SDS011;11064;47.102;15.452;2023-03-14T05:26:08;3.03;;;2.20;;
21804;SDS011;11064;47.102;15.452;2023-03-14T05:28:33;4.63;;;2.50;;
21804;SDS011;11064;47.102;15.452;2023-03-14T05:30:59;4.63;;;2.00;;
21804;SDS011;11064;47.102;15.452;2023-03-14T05:33:25;4.13;;;2.70;;
21804;SDS011;11064;47.102;15.452;2023-03-14T05:35:51;2.88;;;1.92;;
21804;SDS011;11064;47.102;15.452;2023-03-14T05:38:17;4.10;;;2.30;;
21804;SDS011;11064;47.102;15.452;2023-03-14T05:40:44;3.80;;;2.20;;
21804;SDS011;11064;47.102;15.452;2023-03-14T05:43:11;3.75;;;2.10;;
21804;SDS011;11064;47.102;15.452;2023-03-14T05:45:38;6.22;;;3.03;;
21804;SDS011;11064;47.102;15.452;2023-03-14T05:48:04;7.07;;;2.95;;
21804;SDS011;11064;47.102;15.452;2023-03-14T05:50:30;6.32;;;2.65;;
21804;SDS011;11064;47.102;15.452;2023-03-14T05:52:56;5.05;;;2.55;;
21804;SDS011;11064;47.102;15.452;2023-03-14T05:55:22;3.70;;;2.38;;
21804;SDS011;11064;47.102;15.452;2023-03-14T05:57:48;3.83;;;2.35;;
21804;SDS011;11064;47.102;15.452;2023-03-14T06:00:14;6.35;;;2.65;;
21804;SDS011;11064;47.102;15.452;2023-03-14T06:02:40;5.75;;;2.45;;
21804;SDS011;11064;47.102;15.452;2023-03-14T06:05:06;5.53;;;2.72;;
21804;SDS011;11064;47.102;15.452;2023-03-14T06:07:32;4.47;;;2.00;;
21804;SDS011;11064;47.102;15.452;2023-03-14T06:09:58;8.25;;;2.40;;
21804;SDS011;11064;47.102;15.452;2023-03-14T06:12:24;3.63;;;2.15;;
21804;SDS011;11064;47.102;15.452;2023-03-14T06:14:50;4.30;;;2.35;;
21804;SDS011;11064;47.102;15.452;2023-03-14T06:17:16;4.55;;;2.47;;
21804;SDS011;11064;47.102;15.452;2023-03-14T06:19:41;3.38;;;2.20;;
21804;SDS011;11064;47.102;15.452;2023-03-14T06:22:07;6.60;;;2.20;;
21804;SDS011;11064;47.102;15.452;2023-03-14T06:24:33;3.08;;;2.08;;
21804;SDS011;11064;47.102;15.452;2023-03-14T06:26:59;5.18;;;2.30;;
21804;SDS011;11064;47.102;15.452;2023-03-14T06:29:25;5.70;;;2.30;;
21804;SDS011;11064;47.102;15.452;2023-03-14T06:31:50;4.30;;;2.08;;
21804;SDS011;11064;47.102;15.452;2023-03-14T06:34:16;4.43;;;2.38;;
21804;SDS011;11064;47.102;15.452;2023-03-14T06:36:42;2.50;;;2.05;;
21804;SDS011;11064;47.102;15.452;2023-03-14T06:39:08;5.30;;;2.38;;
21804;SDS011;11064;47.102;15.452;2023-03-14T06:41:33;5.00;;;2.55;;
21804;SDS011;11064;47.102;15.452;2023-03-14T06:43:59;4.63;;;2.50;;
21804;SDS011;11064;47.102;15.452;2023-03-14T06:46:25;6.93;;;2.60;;
21804;SDS011;11064;47.102;15.452;2023-03-14T06:48:51;5.90;;;2.55;;
21804;SDS011;11064;47.102;15.452;2023-03-14T06:51:17;6.50;;;2.53;;
21804;SDS011;11064;47.102;15.452;2023-03-14T06:53:43;7.00;;;2.88;;
21804;SDS011;11064;47.102;15.452;2023-03-14T06:56:08;5.22;;;2.90;;
21804;SDS011;11064;47.102;15.452;2023-03-14T06:58:34;3.80;;;2.30;;
21804;SDS011;11064;47.102;15.452;2023-03-14T07:01:00;4.68;;;2.60;;
21804;SDS011;11064;47.102;15.452;2023-03-14T07:03:26;6.90;;;2.45;;
21804;SDS011;11064;47.102;15.452;2023-03-14T07:05:52;8.43;;;2.70;;
21804;SDS011;11064;47.102;15.452;2023-03-14T07:08:18;4.78;;;2.88;;
21804;SDS011;11064;47.102;15.452;2023-03-14T07:10:44;4.28;;;2.53;;
21804;SDS011;11064;47.102;15.452;2023-03-14T07:13:10;5.97;;;2.60;;
21804;SDS011;11064;47.102;15.452;2023-03-14T07:15:36;5.95;;;2.65;;
21804;SDS011;11064;47.102;15.452;2023-03-14T07:18:02;5.32;;;2.60;;
21804;SDS011;11064;47.102;15.452;2023-03-14T07:20:28;3.90;;;2.17;;
21804;SDS011;11064;47.102;15.452;2023-03-14T07:22:54;6.85;;;3.28;;
21804;SDS011;11064;47.102;15.452;2023-03-14T07:25:20;4.65;;;2.70;;
21804;SDS011;11064;47.102;15.452;2023-03-14T07:27:46;6.38;;;2.20;;
21804;SDS011;11064;47.102;15.452;2023-03-14T07:30:15;6.22;;;2.35;;
21804;SDS011;11064;47.102;15.452;2023-03-14T07:32:41;4.43;;;2.40;;
21804;SDS011;11064;47.102;15.452;2023-03-14T07:35:07;4.38;;;2.30;;
21804;SDS011;11064;47.102;15.452;2023-03-14T07:37:33;5.38;;;2.30;;
21804;SDS011;11064;47.102;15.452;2023-03-14T07:39:59;5.70;;;2.30;;
21804;SDS011;11064;47.102;15.452;2023-03-14T07:42:25;5.72;;;2.55;;
21804;SDS011;11064;47.102;15.452;2023-03-14T07:44:51;4.40;;;2.03;;
21804;SDS011;11064;47.102;15.452;2023-03-14T07:47:16;7.35;;;2.22;;
21804;SDS011;11064;47.102;15.452;2023-03-14T07:49:42;4.63;;;2.20;;
21804;SDS011;11064;47.102;15.452;2023-03-14T07:52:08;4.20;;;2.10;;
21804;SDS011;11064;47.102;15.452;2023-03-14T07:54:34;6.93;;;2.20;;
21804;SDS011;11064;47.102;15.452;2023-03-14T07:57:00;5.10;;;2.03;;
21804;SDS011;11064;47.102;15.452;2023-03-14T07:59:27;4.35;;;2.00;;
21804;SDS011;11064;47.102;15.452;2023-03-14T08:01:53;3.85;;;2.00;;
21804;SDS011;11064;47.102;15.452;2023-03-14T08:04:18;5.18;;;2.50;;
21804;SDS011;11064;47.102;15.452;2023-03-14T08:06:44;4.97;;;2.20;;
21804;SDS011;11064;47.102;15.452;2023-03-14T08:09:10;4.80;;;2.20;;
21804;SDS011;11064;47.102;15.452;2023-03-14T08:11:36;5.45;;;1.95;;
21804;SDS011;11064;47.102;15.452;2023-03-14T08:14:02;4.07;;;2.08;;
21804;SDS011;11064;47.102;15.452;2023-03-14T08:16:27;5.40;;;1.80;;
21804;SDS011;11064;47.102;15.452;2023-03-14T08:18:53;6.90;;;2.05;;
21804;SDS011;11064;47.102;15.452;2023-03-14T08:21:19;3.65;;;1.98;;
21804;SDS011;11064;47.102;15.452;2023-03-14T08:23:45;4.68;;;2.10;;
21804;SDS011;11064;47.102;15.452;2023-03-14T08:26:10;3.97;;;2.28;;
21804;SDS011;11064;47.102;15.452;2023-03-14T08:28:36;6.85;;;2.40;;
21804;SDS011;11064;47.102;15.452;2023-03-14T08:31:02;5.15;;;2.15;;
21804;SDS011;11064;47.102;15.452;2023-03-14T08:33:28;5.72;;;2.47;;
21804;SDS011;11064;47.102;15.452;2023-03-14T08:35:55;3.65;;;2.10;;
21804;SDS011;11064;47.102;15.452;2023-03-14T08:38:22;3.47;;;2.13;;
21804;SDS011;11064;47.102;15.452;2023-03-14T08:40:48;5.35;;;2.13;;
21804;SDS011;11064;47.102;15.452;2023-03-14T08:43:15;6.72;;;2.83;;
21804;SDS011;11064;47.102;15.452;2023-03-14T08:45:41;4.90;;;2.15;;
21804;SDS011;11064;47.102;15.452;2023-03-14T08:48:06;5.82;;;2.40;;
21804;SDS011;11064;47.102;15.452;2023-03-14T08:50:32;3.08;;;2.30;;
21804;SDS011;11064;47.102;15.452;2023-03-14T08:52:58;4.93;;;2.35;;
21804;SDS011;11064;47.102;15.452;2023-03-14T08:55:26;5.15;;;2.25;;
21804;SDS011;11064;47.102;15.452;2023-03-14T08:57:52;4.35;;;2.00;;
21804;SDS011;11064;47.102;15.452;2023-03-14T09:00:18;4.15;;;2.00;;
21804;SDS011;11064;47.102;15.452;2023-03-14T09:02:45;6.20;;;2.30;;
21804;SDS011;11064;47.102;15.452;2023-03-14T09:05:11;4.35;;;1.98;;
21804;SDS011;11064;47.102;15.452;2023-03-14T09:07:38;4.28;;;1.98;;
21804;SDS011;11064;47.102;15.452;2023-03-14T09:10:05;5.75;;;2.15;;
21804;SDS011;11064;47.102;15.452;2023-03-14T09:12:32;4.88;;;2.33;;
21804;SDS011;11064;47.102;15.452;2023-03-14T09:14:58;4.60;;;1.90;;
21804;SDS011;11064;47.102;15.452;2023-03-14T09:17:24;4.63;;;2.20;;
21804;SDS011;11064;47.102;15.452;2023-03-14T09:19:49;6.20;;;2.10;;
21804;SDS011;11064;47.102;15.452;2023-03-14T09:22:15;7.20;;;2.05;;
21804;SDS011;11064;47.102;15.452;2023-03-14T09:24:41;3.88;;;1.75;;
21804;SDS011;11064;47.102;15.452;2023-03-14T09:27:07;5.00;;;2.17;;
21804;SDS011;11064;47.102;15.452;2023-03-14T09:29:33;4.82;;;2.30;;
21804;SDS011;11064;47.102;15.452;2023-03-14T09:31:59;5.25;;;1.75;;
21804;SDS011;11064;47.102;15.452;2023-03-14T09:34:25;4.88;;;2.00;;
21804;SDS011;11064;47.102;15.452;2023-03-14T09:36:51;4.50;;;1.90;;
21804;SDS011;11064;47.102;15.452;2023-03-14T09:39:18;4.22;;;2.10;;
21804;SDS011;11064;47.102;15.452;2023-03-14T09:41:46;6.40;;;2.05;;
21804;SDS011;11064;47.102;15.452;2023-03-14T09:47:05;7.32;;;1.90;;
21804;SDS011;11064;47.102;15.452;2023-03-14T09:49:41;5.82;;;1.70;;
21804;SDS011;11064;47.102;15.452;2023-03-14T09:52:17;4.63;;;1.73;;
21804;SDS011;11064;47.102;15.452;2023-03-14T09:57:16;4.40;;;1.83;;
21804;SDS011;11064;47.102;15.452;2023-03-14T09:59:44;9.23;;;1.80;;
21804;SDS011;11064;47.102;15.452;2023-03-14T10:02:22;3.10;;;1.52;;
21804;SDS011;11064;47.102;15.452;2023-03-14T10:04:51;2.67;;;1.60;;
21804;SDS011;11064;47.102;15.452;2023-03-14T10:07:29;7.82;;;1.88;;
21804;SDS011;11064;47.102;15.452;2023-03-14T10:09:57;4.47;;;1.50;;
21804;SDS011;11064;47.102;15.452;2023-03-14T10:12:34;3.70;;;1.85;;
21804;SDS011;11064;47.102;15.452;2023-03-14T10:15:09;3.97;;;1.80;;
21804;SDS011;11064;47.102;15.452;2023-03-14T10:17:58;4.30;;;1.98;;
21804;SDS011;11064;47.102;15.452;2023-03-14T10:20:33;6.18;;;2.38;;
21804;SDS011;11064;47.102;15.452;2023-03-14T10:23:05;6.10;;;1.92;;
21804;SDS011;11064;47.102;15.452;2023-03-14T10:25:58;3.58;;;2.10;;
21804;SDS011;11064;47.102;15.452;2023-03-14T10:28:29;2.28;;;1.50;;
21804;SDS011;11064;47.102;15.452;2023-03-14T10:30:58;4.90;;;1.85;;
21804;SDS011;11064;47.102;15.452;2023-03-14T10:33:27;3.60;;;1.38;;
21804;SDS011;11064;47.102;15.452;2023-03-14T10:35:55;2.97;;;1.48;;
21804;SDS011;11064;47.102;15.452;2023-03-14T10:38:26;2.80;;;1.42;;
21804;SDS011;11064;47.102;15.452;2023-03-14T10:40:54;5.38;;;1.80;;
21804;SDS011;11064;47.102;15.452;2023-03-14T10:43:24;3.22;;;1.30;;
21804;SDS011;11064;47.102;15.452;2023-03-14T10:46:02;2.67;;;1.27;;
21804;SDS011;11064;47.102;15.452;2023-03-14T10:48:36;3.78;;;1.33;;
21804;SDS011;11064;47.102;15.452;2023-03-14T10:51:07;3.95;;;1.27;;
21804;SDS011;11064;47.102;15.452;2023-03-14T10:53:43;3.20;;;1.40;;
21804;SDS011;11064;47.102;15.452;2023-03-14T10:56:22;4.65;;;1.30;;
21804;SDS011;11064;47.102;15.452;2023-03-14T10:58:50;1.60;;;1.13;;
21804;SDS011;11064;47.102;15.452;2023-03-14T11:01:26;2.65;;;1.35;;
21804;SDS011;11064;47.102;15.452;2023-03-14T11:04:01;1.80;;;1.00;;
21804;SDS011;11064;47.102;15.452;2023-03-14T11:07:03;2.67;;;0.80;;
21804;SDS011;11064;47.102;15.452;2023-03-14T11:14:54;3.42;;;0.52;;
21804;SDS011;11064;47.102;15.452;2023-03-14T11:17:39;1.10;;;0.60;;
21804;SDS011;11064;47.102;15.452;2023-03-14T11:20:26;2.00;;;0.43;;
21804;SDS011;11064;47.102;15.452;2023-03-14T11:23:32;0.95;;;0.40;;
21804;SDS011;11064;47.102;15.452;2023-03-14T11:29:22;0.30;;;0.30;;
21804;SDS011;11064;47.102;15.452;2023-03-14T11:31:58;0.57;;;0.28;;
21804;SDS011;11064;47.102;15.452;2023-03-14T11:34:36;0.77;;;0.30;;
21804;SDS011;11064;47.102;15.452;2023-03-14T11:39:59;0.10;;;0.10;;
21804;SDS011;11064;47.102;15.452;2023-03-14T11:43:24;0.10;;;0.10;;
21804;SDS011;11064;47.102;15.452;2023-03-14T11:45:45;1.58;;;0.22;;
21804;SDS011;11064;47.102;15.452;2023-03-14T11:50:52;1.63;;;0.30;;
21804;SDS011;11064;47.102;15.452;2023-03-14T11:55:56;0.55;;;0.20;;
21804;SDS011;11064;47.102;15.452;2023-03-14T11:58:26;0.28;;;0.20;;
21804;SDS011;11064;47.102;15.452;2023-03-14T12:00:56;0.20;;;0.20;;
21804;SDS011;11064;47.102;15.452;2023-03-14T12:03:48;1.75;;;0.30;;
21804;SDS011;11064;47.102;15.452;2023-03-14T12:06:35;1.60;;;0.28;;
21804;SDS011;11064;47.102;15.452;2023-03-14T12:09:09;1.45;;;0.20;;
21804;SDS011;11064;47.102;15.452;2023-03-14T12:11:39;1.20;;;0.20;;
21804;SDS011;11064;47.102;15.452;2023-03-14T12:14:18;1.02;;;0.30;;
21804;SDS011;11064;47.102;15.452;2023-03-14T12:16:45;0.20;;;0.20;;
21804;SDS011;11064;47.102;15.452;2023-03-14T12:19:25;0.40;;;0.30;;
21804;SDS011;11064;47.102;15.452;2023-03-14T12:21:57;0.30;;;0.28;;
21804;SDS011;11064;47.102;15.452;2023-03-14T12:24:45;0.35;;;0.22;;
21804;SDS011;11064;47.102;15.452;2023-03-14T12:30:26;0.88;;;0.20;;
21804;SDS011;11064;47.102;15.452;2023-03-14T12:35:44;0.43;;;0.30;;
21804;SDS011;11064;47.102;15.452;2023-03-14T12:41:14;0.80;;;0.75;;
21804;SDS011;11064;47.102;15.452;2023-03-14T12:43:50;0.60;;;0.35;;
21804;SDS011;11064;47.102;15.452;2023-03-14T12:46:26;0.50;;;0.35;;
21804;SDS011;11064;47.102;15.452;2023-03-14T12:56:45;0.47;;;0.45;;
21804;SDS011;11064;47.102;15.452;2023-03-14T12:59:32;0.45;;;0.30;;
21804;SDS011;11064;47.102;15.452;2023-03-14T13:04:44;0.40;;;0.40;;
21804;SDS011;11064;47.102;15.452;2023-03-14T13:12:38;0.77;;;0.40;;
21804;SDS011;11064;47.102;15.452;2023-03-14T13:17:51;0.77;;;0.50;;
21804;SDS011;11064;47.102;15.452;2023-03-14T13:21:03;1.38;;;0.50;;
21804;SDS011;11064;47.102;15.452;2023-03-14T13:23:25;5.05;;;0.60;;
21804;SDS011;11064;47.102;15.452;2023-03-14T13:25:52;2.03;;;0.50;;
21804;SDS011;11064;47.102;15.452;2023-03-14T13:28:19;1.95;;;0.60;;
21804;SDS011;11064;47.102;15.452;2023-03-14T13:30:49;1.13;;;0.70;;
21804;SDS011;11064;47.102;15.452;2023-03-14T13:33:20;2.50;;;0.90;;
21804;SDS011;11064;47.102;15.452;2023-03-14T13:36:08;2.65;;;0.90;;
21804;SDS011;11064;47.102;15.452;2023-03-14T13:38:35;3.25;;;1.17;;
21804;SDS011;11064;47.102;15.452;2023-03-14T13:41:05;3.38;;;0.90;;
21804;SDS011;11064;47.102;15.452;2023-03-14T13:43:33;9.20;;;0.90;;
21804;SDS011;11064;47.102;15.452;2023-03-14T13:46:04;5.07;;;1.00;;
21804;SDS011;11064;47.102;15.452;2023-03-14T13:48:33;2.13;;;0.70;;
21804;SDS011;11064;47.102;15.452;2023-03-14T13:51:05;2.50;;;0.88;;
21804;SDS011;11064;47.102;15.452;2023-03-14T13:53:47;3.00;;;0.90;;
21804;SDS011;11064;47.102;15.452;2023-03-14T13:56:18;5.18;;;0.90;;
21804;SDS011;11064;47.102;15.452;2023-03-14T13:58:45;2.55;;;0.80;;
21804;SDS011;11064;47.102;15.452;2023-03-14T14:03:45;4.80;;;1.00;;
21804;SDS011;11064;47.102;15.452;2023-03-14T14:06:26;1.80;;;0.93;;
21804;SDS011;11064;47.102;15.452;2023-03-14T14:08:57;2.10;;;1.05;;
21804;SDS011;11064;47.102;15.452;2023-03-14T14:11:32;4.15;;;1.00;;
21804;SDS011;11064;47.102;15.452;2023-03-14T14:14:04;2.38;;;1.02;;
21804;SDS011;11064;47.102;15.452;2023-03-14T14:16:36;2.20;;;1.05;;
21804;SDS011;11064;47.102;15.452;2023-03-14T14:19:02;4.13;;;1.30;;
21804;SDS011;11064;47.102;15.452;2023-03-14T14:21:28;2.38;;;1.23;;
21804;SDS011;11064;47.102;15.452;2023-03-14T14:23:56;2.97;;;1.08;;
21804;SDS011;11064;47.102;15.452;2023-03-14T14:26:23;7.05;;;1.67;;
21804;SDS011;11064;47.102;15.452;2023-03-14T14:29:04;2.75;;;1.08;;
21804;SDS011;11064;47.102;15.452;2023-03-14T14:31:31;4.50;;;1.20;;
21804;SDS011;11064;47.102;15.452;2023-03-14T14:34:03;4.43;;;1.17;;
21804;SDS011;11064;47.102;15.452;2023-03-14T14:36:47;3.45;;;1.05;;
21804;SDS011;11064;47.102;15.452;2023-03-14T14:39:19;6.72;;;1.25;;
21804;SDS011;11064;47.102;15.452;2023-03-14T14:41:49;4.88;;;1.42;;
21804;SDS011;11064;47.102;15.452;2023-03-14T14:44:17;2.67;;;1.20;;
21804;SDS011;11064;47.102;15.452;2023-03-14T14:46:52;2.10;;;1.20;;
21804;SDS011;11064;47.102;15.452;2023-03-14T14:49:20;4.53;;;1.30;;
21804;SDS011;11064;47.102;15.452;2023-03-14T14:51:49;4.10;;;1.25;;
21804;SDS011;11064;47.102;15.452;2023-03-14T14:54:16;3.03;;;1.60;;
21804;SDS011;11064;47.102;15.452;2023-03-14T14:56:53;3.03;;;1.30;;
21804;SDS011;11064;47.102;15.452;2023-03-14T14:59:28;3.13;;;1.40;;
21804;SDS011;11064;47.102;15.452;2023-03-14T15:01:58;2.67;;;1.10;;
21804;SDS011;11064;47.102;15.452;2023-03-14T15:04:26;5.72;;;1.42;;
21804;SDS011;11064;47.102;15.452;2023-03-14T15:06:54;2.55;;;1.05;;
21804;SDS011;11064;47.102;15.452;2023-03-14T15:09:20;2.40;;;1.10;;
21804;SDS011;11064;47.102;15.452;2023-03-14T15:11:46;6.32;;;1.08;;
21804;SDS011;11064;47.102;15.452;2023-03-14T15:14:13;2.42;;;0.80;;
21804;SDS011;11064;47.102;15.452;2023-03-14T15:16:39;2.63;;;0.73;;
21804;SDS011;11064;47.102;15.452;2023-03-14T15:19:19;1.10;;;0.68;;
21804;SDS011;11064;47.102;15.452;2023-03-14T15:21:46;1.17;;;0.75;;
21804;SDS011;11064;47.102;15.452;2023-03-14T15:24:12;3.40;;;0.90;;
21804;SDS011;11064;47.102;15.452;2023-03-14T15:26:38;2.15;;;1.00;;
21804;SDS011;11064;47.102;15.452;2023-03-14T15:29:04;3.22;;;0.95;;
21804;SDS011;11064;47.102;15.452;2023-03-14T15:31:33;1.60;;;1.00;;
21804;SDS011;11064;47.102;15.452;2023-03-14T15:34:00;3.08;;;1.08;;
21804;SDS011;11064;47.102;15.452;2023-03-14T15:36:30;0.90;;;0.80;;
21804;SDS011;11064;47.102;15.452;2023-03-14T15:38:57;2.47;;;0.82;;
21804;SDS011;11064;47.102;15.452;2023-03-14T15:41:25;1.75;;;0.70;;
21804;SDS011;11064;47.102;15.452;2023-03-14T15:43:52;2.38;;;1.00;;
21804;SDS011;11064;47.102;15.452;2023-03-14T15:46:19;1.27;;;0.80;;
21804;SDS011;11064;47.102;15.452;2023-03-14T15:48:47;0.85;;;0.77;;
21804;SDS011;11064;47.102;15.452;2023-03-14T15:51:14;2.53;;;0.80;;
21804;SDS011;11064;47.102;15.452;2023-03-14T15:53:40;2.40;;;0.82;;
21804;SDS011;11064;47.102;15.452;2023-03-14T15:56:11;1.20;;;0.70;;
21804;SDS011;11064;47.102;15.452;2023-03-14T15:58:39;1.90;;;0.68;;
21804;SDS011;11064;47.102;15.452;2023-03-14T16:01:06;0.85;;;0.63;;
21804;SDS011;11064;47.102;15.452;2023-03-14T16:03:36;1.77;;;0.50;;
21804;SDS011;11064;47.102;15.452;2023-03-14T16:06:02;0.73;;;0.50;;
21804;SDS011;11064;47.102;15.452;2023-03-14T16:08:29;1.60;;;0.65;;
21804;SDS011;11064;47.102;15.452;2023-03-14T16:10:55;1.80;;;0.60;;
21804;SDS011;11064;47.102;15.452;2023-03-14T16:13:22;1.20;;;0.70;;
21804;SDS011;11064;47.102;15.452;2023-03-14T16:15:55;1.17;;;0.70;;
21804;SDS011;11064;47.102;15.452;2023-03-14T16:18:22;1.83;;;0.75;;
21804;SDS011;11064;47.102;15.452;2023-03-14T16:20:56;1.88;;;0.80;;
21804;SDS011;11064;47.102;15.452;2023-03-14T16:23:27;3.53;;;1.00;;
21804;SDS011;11064;47.102;15.452;2023-03-14T16:25:53;1.17;;;0.80;;
21804;SDS011;11064;47.102;15.452;2023-03-14T16:28:21;1.63;;;0.82;;
21804;SDS011;11064;47.102;15.452;2023-03-14T16:30:47;1.33;;;0.73;;
21804;SDS011;11064;47.102;15.452;2023-03-14T16:33:13;1.52;;;0.80;;
21804;SDS011;11064;47.102;15.452;2023-03-14T16:35:40;1.35;;;0.70;;
21804;SDS011;11064;47.102;15.452;2023-03-14T16:38:06;2.03;;;1.00;;
21804;SDS011;11064;47.102;15.452;2023-03-14T16:40:33;1.10;;;0.85;;
21804;SDS011;11064;47.102;15.452;2023-03-14T16:42:59;1.75;;;0.88;;
21804;SDS011;11064;47.102;15.452;2023-03-14T16:45:28;0.85;;;0.80;;
21804;SDS011;11064;47.102;15.452;2023-03-14T16:47:54;1.48;;;1.00;;
21804;SDS011;11064;47.102;15.452;2023-03-14T16:50:20;1.65;;;1.17;;
21804;SDS011;11064;47.102;15.452;2023-03-14T16:52:45;2.75;;;1.10;;
21804;SDS011;11064;47.102;15.452;2023-03-14T16:55:13;2.05;;;0.90;;
21804;SDS011;11064;47.102;15.452;2023-03-14T16:57:40;1.63;;;0.80;;
21804;SDS011;11064;47.102;15.452;2023-03-14T17:00:06;1.60;;;0.80;;
21804;SDS011;11064;47.102;15.452;2023-03-14T17:02:33;1.60;;;1.02;;
21804;SDS011;11064;47.102;15.452;2023-03-14T17:04:59;1.98;;;1.00;;
21804;SDS011;11064;47.102;15.452;2023-03-14T17:07:25;1.60;;;1.02;;
21804;SDS011;11064;47.102;15.452;2023-03-14T17:09:51;6.82;;;3.05;;
21804;SDS011;11064;47.102;15.452;2023-03-14T17:12:19;4.82;;;1.90;;
21804;SDS011;11064;47.102;15.452;2023-03-14T17:14:45;3.88;;;2.83;;
21804;SDS011;11064;47.102;15.452;2023-03-14T17:17:11;4.70;;;3.35;;
21804;SDS011;11064;47.102;15.452;2023-03-14T17:19:36;1.88;;;0.90;;
21804;SDS011;11064;47.102;15.452;2023-03-14T17:22:02;3.00;;;1.00;;
21804;SDS011;11064;47.102;15.452;2023-03-14T17:24:28;1.90;;;1.00;;
21804;SDS011;11064;47.102;15.452;2023-03-14T17:26:54;1.65;;;1.00;;
21804;SDS011;11064;47.102;15.452;2023-03-14T17:29:20;1.50;;;0.95;;
21804;SDS011;11064;47.102;15.452;2023-03-14T17:31:46;1.05;;;0.73;;
21804;SDS011;11064;47.102;15.452;2023-03-14T17:34:12;2.78;;;1.10;;
21804;SDS011;11064;47.102;15.452;2023-03-14T17:36:38;1.60;;;0.90;;
21804;SDS011;11064;47.102;15.452;2023-03-14T17:39:04;1.67;;;1.20;;
21804;SDS011;11064;47.102;15.452;2023-03-14T17:41:33;1.42;;;1.08;;
21804;SDS011;11064;47.102;15.452;2023-03-14T17:43:59;2.15;;;1.30;;
21804;SDS011;11064;47.102;15.452;2023-03-14T17:46:25;1.98;;;1.30;;
21804;SDS011;11064;47.102;15.452;2023-03-14T17:48:51;1.60;;;1.25;;
21804;SDS011;11064;47.102;15.452;2023-03-14T17:51:18;2.15;;;1.00;;
21804;SDS011;11064;47.102;15.452;2023-03-14T17:53:45;2.42;;;1.40;;
21804;SDS011;11064;47.102;15.452;2023-03-14T17:56:11;3.10;;;1.85;;
21804;SDS011;11064;47.102;15.452;2023-03-14T17:58:37;2.17;;;1.30;;
21804;SDS011;11064;47.102;15.452;2023-03-14T18:03:35;2.20;;;1.30;;
21804;SDS011;11064;47.102;15.452;2023-03-14T18:06:05;1.42;;;1.30;;
21804;SDS011;11064;47.102;15.452;2023-03-14T18:08:35;3.70;;;1.30;;
21804;SDS011;11064;47.102;15.452;2023-03-14T18:11:02;2.75;;;1.42;;
21804;SDS011;11064;47.102;15.452;2023-03-14T18:13:30;1.50;;;1.27;;
21804;SDS011;11064;47.102;15.452;2023-03-14T18:15:57;3.90;;;1.55;;
21804;SDS011;11064;47.102;15.452;2023-03-14T18:18:23;3.15;;;1.70;;
21804;SDS011;11064;47.102;15.452;2023-03-14T18:20:52;1.95;;;1.17;;
21804;SDS011;11064;47.102;15.452;2023-03-14T18:23:19;3.38;;;1.30;;
21804;SDS011;11064;47.102;15.452;2023-03-14T18:25:47;1.17;;;1.08;;
21804;SDS011;11064;47.102;15.452;2023-03-14T18:28:13;1.92;;;1.23;;
21804;SDS011;11064;47.102;15.452;2023-03-14T18:30:41;3.05;;;1.20;;
21804;SDS011;11064;47.102;15.452;2023-03-14T18:33:07;2.78;;;1.50;;
21804;SDS011;11064;47.102;15.452;2023-03-14T18:35:37;8.07;;;6.18;;
21804;SDS011;11064;47.102;15.452;2023-03-14T18:38:03;5.20;;;4.63;;
21804;SDS011;11064;47.102;15.452;2023-03-14T18:40:32;3.35;;;1.88;;
21804;SDS011;11064;47.102;15.452;2023-03-14T18:42:59;2.92;;;2.20;;
21804;SDS011;11064;47.102;15.452;2023-03-14T18:45:29;4.68;;;2.97;;
21804;SDS011;11064;47.102;15.452;2023-03-14T18:47:56;3.00;;;2.50;;
21804;SDS011;11064;47.102;15.452;2023-03-14T18:50:23;3.15;;;1.80;;
21804;SDS011;11064;47.102;15.452;2023-03-14T18:52:50;3.65;;;2.00;;
21804;SDS011;11064;47.102;15.452;2023-03-14T18:55:16;4.63;;;1.80;;
21804;SDS011;11064;47.102;15.452;2023-03-14T18:57:42;3.95;;;2.30;;
21804;SDS011;11064;47.102;15.452;2023-03-14T19:00:08;2.47;;;1.70;;
21804;SDS011;11064;47.102;15.452;2023-03-14T19:02:36;1.63;;;1.20;;
21804;SDS011;11064;47.102;15.452;2023-03-14T19:05:03;2.72;;;1.58;;
21804;SDS011;11064;47.102;15.452;2023-03-14T19:07:30;3.25;;;1.80;;
21804;SDS011;11064;47.102;15.452;2023-03-14T19:09:58;5.15;;;3.03;;
21804;SDS011;11064;47.102;15.452;2023-03-14T19:12:26;1.85;;;1.50;;
21804;SDS011;11064;47.102;15.452;2023-03-14T19:14:53;6.13;;;1.83;;
21804;SDS011;11064;47.102;15.452;2023-03-14T19:17:19;2.08;;;1.70;;
21804;SDS011;11064;47.102;15.452;2023-03-14T19:19:45;3.40;;;1.52;;
21804;SDS011;11064;47.102;15.452;2023-03-14T19:22:12;3.03;;;1.65;;
21804;SDS011;11064;47.102;15.452;2023-03-14T19:24:38;3.50;;;1.70;;
21804;SDS011;11064;47.102;15.452;2023-03-14T19:27:04;2.50;;;1.70;;
21804;SDS011;11064;47.102;15.452;2023-03-14T19:29:31;2.90;;;1.75;;
21804;SDS011;11064;47.102;15.452;2023-03-14T19:32:03;2.63;;;2.10;;
21804;SDS011;11064;47.102;15.452;2023-03-14T19:34:30;3.83;;;1.60;;
21804;SDS011;11064;47.102;15.452;2023-03-14T19:36:56;2.40;;;1.48;;
21804;SDS011;11064;47.102;15.452;2023-03-14T19:39:22;0.88;;;0.63;;
21804;SDS011;11064;47.102;15.452;2023-03-14T19:41:49;2.85;;;2.47;;
21804;SDS011;11064;47.102;15.452;2023-03-14T19:44:22;1.20;;;0.80;;
21804;SDS011;11064;47.102;15.452;2023-03-14T19:46:49;1.10;;;0.80;;
21804;SDS011;11064;47.102;15.452;2023-03-14T19:49:15;2.70;;;2.13;;
21804;SDS011;11064;47.102;15.452;2023-03-14T19:51:41;5.95;;;4.53;;
21804;SDS011;11064;47.102;15.452;2023-03-14T19:54:08;3.85;;;2.20;;
21804;SDS011;11064;47.102;15.452;2023-03-14T19:56:34;2.20;;;1.70;;
21804;SDS011;11064;47.102;15.452;2023-03-14T19:59:02;0.60;;;0.60;;
21804;SDS011;11064;47.102;15.452;2023-03-14T20:01:28;1.80;;;1.02;;
21804;SDS011;11064;47.102;15.452;2023-03-14T20:03:56;1.00;;;0.88;;
21804;SDS011;11064;47.102;15.452;2023-03-14T20:06:24;0.70;;;0.60;;
21804;SDS011;11064;47.102;15.452;2023-03-14T20:08:50;1.95;;;0.50;;
21804;SDS011;11064;47.102;15.452;2023-03-14T20:11:16;0.70;;;0.60;;
21804;SDS011;11064;47.102;15.452;2023-03-14T20:13:43;1.08;;;0.60;;
21804;SDS011;11064;47.102;15.452;2023-03-14T20:16:09;2.08;;;0.52;;
21804;SDS011;11064;47.102;15.452;2023-03-14T20:18:36;0.90;;;0.50;;
21804;SDS011;11064;47.102;15.452;2023-03-14T20:21:06;0.85;;;0.65;;
21804;SDS011;11064;47.102;15.452;2023-03-14T20:23:34;0.60;;;0.52;;
21804;SDS011;11064;47.102;15.452;2023-03-14T20:26:00;1.15;;;0.60;;
21804;SDS011;11064;47.102;15.452;2023-03-14T20:28:27;2.83;;;1.95;;
21804;SDS011;11064;47.102;15.452;2023-03-14T20:30:53;1.05;;;0.73;;
21804;SDS011;11064;47.102;15.452;2023-03-14T20:33:20;3.72;;;2.75;;
21804;SDS011;11064;47.102;15.452;2023-03-14T20:35:53;1.17;;;1.00;;
21804;SDS011;11064;47.102;15.452;2023-03-14T20:38:20;1.60;;;1.35;;